Time;durP1;ratioP1;P1;durP2;ratioP2;P2;SDS_P1;SDS_P2;PMS_P1;PMS_P2;Temp;Humidity;BMP_temperature;BMP_pressure;BME280_temperature;BME280_humidity;BME280_pressure;Samples;Min_cycle;Max_cycle;Signal;HPM_P1;HPM_P2
2021/11/05 00:00:21;;;;;;;3.45;2.92;;;;;;;4.06;100.00;95655.16;5070990;28;24419;-71
2021/11/05 00:02:50;;;;;;;3.30;2.85;;;;;;;4.08;100.00;95659.34;5070940;28;24480;-71
2021/11/05 00:05:17;;;;;;;3.42;2.75;;;;;;;3.97;100.00;95661.50;5070590;28;24421;-71
2021/11/05 00:07:43;;;;;;;3.45;2.90;;;;;;;4.00;100.00;95666.47;5070994;28;24489;-71
2021/11/05 00:10:10;;;;;;;3.40;2.42;;;;;;;3.97;100.00;95665.75;5071087;28;24417;-71
2021/11/05 00:12:38;;;;;;;4.55;2.47;;;;;;;3.93;100.00;95677.88;5070959;28;24425;-71
2021/11/05 00:15:06;;;;;;;3.90;3.05;;;;;;;3.98;100.00;95678.53;5070368;28;24426;-71
2021/11/05 00:17:32;;;;;;;3.40;2.95;;;;;;;3.96;100.00;95684.59;5070644;28;24418;-71
2021/11/05 00:19:59;;;;;;;3.17;2.88;;;;;;;3.95;100.00;95681.19;5070606;28;24430;-71
2021/11/05 00:22:25;;;;;;;3.13;2.50;;;;;;;4.05;100.00;95682.53;5070824;28;24442;-71
2021/11/05 00:24:52;;;;;;;3.00;2.70;;;;;;;4.08;100.00;95679.84;5070458;28;24468;-71
2021/11/05 00:27:18;;;;;;;4.67;2.77;;;;;;;4.04;100.00;95674.88;5069853;28;24449;-71
2021/11/05 00:29:46;;;;;;;3.60;2.87;;;;;;;4.08;100.00;95674.72;5070699;28;24455;-71
2021/11/05 00:32:13;;;;;;;3.50;2.90;;;;;;;4.08;100.00;95681.59;5070465;28;24415;-71
2021/11/05 00:34:39;;;;;;;2.85;2.50;;;;;;;4.11;100.00;95681.44;5070082;28;24781;-70
2021/11/05 00:37:07;;;;;;;2.70;2.50;;;;;;;4.13;100.00;95672.81;5070661;28;24418;-70
2021/11/05 00:39:33;;;;;;;3.50;2.72;;;;;;;4.13;100.00;95684.78;5070522;28;24415;-71
2021/11/05 00:42:00;;;;;;;2.67;2.47;;;;;;;4.11;100.00;95684.84;5070545;28;24426;-70
2021/11/05 00:44:27;;;;;;;2.70;2.50;;;;;;;4.07;100.00;95683.28;5070306;28;24426;-70
2021/11/05 00:46:54;;;;;;;2.88;2.55;;;;;;;4.10;100.00;95685.72;5070121;28;24411;-70
2021/11/05 00:49:21;;;;;;;3.38;2.83;;;;;;;3.99;100.00;95698.13;5070199;28;24430;-70
2021/11/05 00:51:47;;;;;;;2.83;2.50;;;;;;;4.04;100.00;95701.38;5070242;28;24410;-70
2021/11/05 00:54:14;;;;;;;3.83;2.63;;;;;;;4.12;100.00;95690.81;5070426;28;24430;-71
2021/11/05 00:56:41;;;;;;;3.13;2.70;;;;;;;4.05;100.00;95697.91;5070131;28;24483;-71
2021/11/05 00:59:07;;;;;;;2.75;2.55;;;;;;;4.05;100.00;95692.78;5070268;28;24417;-70
2021/11/05 01:01:34;;;;;;;2.80;2.40;;;;;;;4.09;100.00;95691.75;5070107;28;24419;-70
2021/11/05 01:04:01;;;;;;;3.90;2.30;;;;;;;4.13;100.00;95695.88;5070414;28;24792;-71
2021/11/05 01:06:28;;;;;;;3.20;2.30;;;;;;;4.03;100.00;95696.28;5070121;28;24788;-70
2021/11/05 01:08:54;;;;;;;2.30;2.10;;;;;;;4.03;100.00;95693.72;5070175;28;24453;-70
2021/11/05 01:11:21;;;;;;;3.88;2.67;;;;;;;4.07;100.00;95698.66;5070235;28;24966;-70
2021/11/05 01:13:48;;;;;;;3.22;2.55;;;;;;;3.99;100.00;95700.69;5070088;28;24418;-70
2021/11/05 01:16:15;;;;;;;2.83;2.45;;;;;;;3.99;100.00;95703.25;5069622;28;24460;-70
2021/11/05 01:18:42;;;;;;;2.40;2.20;;;;;;;3.97;100.00;95704.19;5070211;28;24427;-70
2021/11/05 01:21:10;;;;;;;4.68;2.60;;;;;;;3.99;100.00;95708.38;5070225;28;24784;-70
2021/11/05 01:23:36;;;;;;;2.78;2.25;;;;;;;4.06;100.00;95707.25;5070171;28;24426;-71
2021/11/05 01:26:03;;;;;;;2.63;2.15;;;;;;;3.98;100.00;95711.84;5069845;28;24433;-70
2021/11/05 01:28:29;;;;;;;3.77;2.50;;;;;;;4.01;100.00;95710.91;5069765;28;24451;-71
2021/11/05 01:30:56;;;;;;;2.63;2.23;;;;;;;4.01;100.00;95716.03;5069826;28;24422;-70
2021/11/05 01:33:23;;;;;;;2.10;1.70;;;;;;;4.02;100.00;95712.56;5070137;28;24423;-70
2021/11/05 01:35:51;;;;;;;2.33;2.03;;;;;;;4.09;100.00;95714.00;5069724;28;24418;-70
2021/11/05 01:38:19;;;;;;;2.37;1.87;;;;;;;4.04;100.00;95713.31;5071156;28;24462;-71
2021/11/05 01:40:46;;;;;;;2.78;2.15;;;;;;;3.99;100.00;95720.34;5073630;28;24414;-71
2021/11/05 01:43:14;;;;;;;2.45;1.80;;;;;;;4.06;100.00;95716.66;5073576;28;24780;-71
2021/11/05 01:45:41;;;;;;;4.15;1.70;;;;;;;4.11;100.00;95718.16;5073464;28;24422;-71
2021/11/05 01:48:08;;;;;;;1.85;1.75;;;;;;;4.09;100.00;95714.81;5080782;23;24559;-75
2021/11/05 01:50:36;;;;;;;3.08;2.15;;;;;;;4.10;100.00;95715.66;5033647;28;24431;-76
2021/11/05 01:53:03;;;;;;;3.25;2.20;;;;;;;4.11;100.00;95723.28;5033746;28;24432;-76
2021/11/05 01:55:31;;;;;;;1.80;1.60;;;;;;;4.08;100.00;95720.84;5033341;28;24522;-75
2021/11/05 01:57:58;;;;;;;2.30;1.70;;;;;;;4.17;100.00;95726.53;5037165;28;24450;-75
2021/11/05 02:00:27;;;;;;;2.13;1.80;;;;;;;4.10;100.00;95724.19;5053495;28;24426;-75
2021/11/05 02:02:53;;;;;;;2.28;1.80;;;;;;;4.13;100.00;95728.38;5053476;28;24415;-76
2021/11/05 02:05:21;;;;;;;2.10;1.58;;;;;;;4.17;100.00;95726.53;5053443;28;24430;-74
2021/11/05 02:07:51;;;;;;;2.13;1.67;;;;;;;4.16;100.00;95728.25;5053081;28;25012;-76
2021/11/05 02:10:18;;;;;;;1.70;1.60;;;;;;;4.13;100.00;95726.63;5053089;28;24829;-76
2021/11/05 02:12:47;;;;;;;1.80;1.60;;;;;;;4.17;100.00;95729.91;5053059;28;24944;-75
2021/11/05 02:15:15;;;;;;;1.90;1.60;;;;;;;4.21;100.00;95734.03;5052822;28;24415;-75
2021/11/05 02:17:43;;;;;;;1.75;1.50;;;;;;;4.15;100.00;95730.84;5052898;28;24976;-76
2021/11/05 02:20:12;;;;;;;2.17;1.65;;;;;;;4.17;100.00;95736.78;5053116;28;24423;-76
2021/11/05 02:22:40;;;;;;;1.60;1.48;;;;;;;4.23;100.00;95739.94;5052851;28;24488;-75
2021/11/05 02:25:08;;;;;;;1.95;1.60;;;;;;;4.08;100.00;95743.09;5052983;28;24434;-76
2021/11/05 02:27:34;;;;;;;2.10;1.90;;;;;;;4.12;100.00;95748.03;5052791;28;24435;-75
2021/11/05 02:30:04;;;;;;;1.80;1.63;;;;;;;4.09;100.00;95745.59;5052866;28;24501;-75
2021/11/05 02:32:31;;;;;;;1.50;1.40;;;;;;;4.09;100.00;95742.19;5052854;28;24428;-75
2021/11/05 02:34:57;;;;;;;2.20;1.50;;;;;;;4.11;100.00;95746.34;5052458;28;24506;-75
2021/11/05 02:37:26;;;;;;;1.85;1.75;;;;;;;4.02;100.00;95741.56;5052551;28;24979;-75
2021/11/05 02:39:54;;;;;;;1.58;1.48;;;;;;;3.99;100.00;95744.25;5052647;28;24427;-75
2021/11/05 02:42:22;;;;;;;2.00;1.88;;;;;;;3.99;100.00;95749.38;5052797;28;24431;-76
2021/11/05 02:44:49;;;;;;;2.22;1.98;;;;;;;3.98;100.00;95754.56;5052031;28;24955;-75
2021/11/05 02:47:18;;;;;;;2.25;1.95;;;;;;;3.95;100.00;95752.94;5052479;28;24430;-74
2021/11/05 02:49:45;;;;;;;2.10;1.70;;;;;;;3.99;100.00;95759.63;5051272;28;24455;-74
2021/11/05 02:52:12;;;;;;;1.95;1.83;;;;;;;3.97;100.00;95764.00;5052187;28;24967;-75
2021/11/05 02:54:38;;;;;;;2.05;1.85;;;;;;;4.04;100.00;95767.13;5052217;28;24419;-76
2021/11/05 02:57:08;;;;;;;2.25;1.90;;;;;;;4.11;100.00;95760.88;5052411;28;24501;-75
2021/11/05 02:59:34;;;;;;;2.40;1.63;;;;;;;4.13;100.00;95766.81;5052202;28;24518;-74
2021/11/05 03:02:01;;;;;;;2.08;1.80;;;;;;;4.16;100.00;95763.31;5052576;28;24431;-76
2021/11/05 03:04:28;;;;;;;2.55;1.80;;;;;;;4.16;100.00;95776.13;5051743;28;24780;-75
2021/11/05 03:06:59;;;;;;;2.92;1.80;;;;;;;4.14;100.00;95781.28;5051999;28;24983;-75
2021/11/05 03:09:30;;;;;;;1.90;1.50;;;;;;;4.10;100.00;95787.44;5052174;28;24927;-75
2021/11/05 03:11:57;;;;;;;1.52;1.42;;;;;;;4.04;100.00;95780.81;5052101;28;24423;-75
2021/11/05 03:14:25;;;;;;;1.50;1.40;;;;;;;4.00;100.00;95786.91;5051777;28;24431;-75
2021/11/05 03:16:52;;;;;;;1.92;1.55;;;;;;;4.08;100.00;95790.06;5051723;28;24423;-75
2021/11/05 03:19:19;;;;;;;1.80;1.70;;;;;;;4.10;100.00;95790.00;5051799;28;24825;-75
2021/11/05 03:21:46;;;;;;;2.53;1.60;;;;;;;4.10;100.00;95790.81;5052053;28;24434;-75
2021/11/05 03:24:13;;;;;;;1.90;1.70;;;;;;;4.02;100.00;95803.09;5051864;28;24451;-75
2021/11/05 03:26:40;;;;;;;1.50;1.40;;;;;;;4.09;100.00;95798.56;5051677;28;24426;-75
2021/11/05 03:29:06;;;;;;;1.50;1.38;;;;;;;4.01;100.00;95798.84;5051499;28;24458;-74
2021/11/05 03:31:34;;;;;;;1.42;1.25;;;;;;;4.04;100.00;95798.75;5051592;28;24431;-75
2021/11/05 03:34:01;;;;;;;2.47;1.60;;;;;;;3.95;100.00;95796.50;5051910;28;24477;-75
2021/11/05 03:36:27;;;;;;;1.63;1.23;;;;;;;3.97;100.00;95799.00;5051402;28;24430;-76
2021/11/05 03:38:54;;;;;;;1.40;1.30;;;;;;;4.02;100.00;95804.81;5051542;28;24423;-75
2021/11/05 03:41:22;;;;;;;1.15;1.02;;;;;;;4.02;100.00;95809.94;5051455;28;24426;-75
2021/11/05 03:43:49;;;;;;;1.35;1.25;;;;;;;4.05;100.00;95804.72;5051380;28;24990;-75
2021/11/05 03:46:15;;;;;;;1.40;1.30;;;;;;;3.98;100.00;95814.34;5051057;28;24780;-75
2021/11/05 03:48:43;;;;;;;1.50;1.40;;;;;;;3.96;100.00;95816.09;5051209;28;24447;-75
2021/11/05 03:51:10;;;;;;;1.43;1.33;;;;;;;4.04;100.00;95819.25;5051469;28;24442;-75
2021/11/05 03:53:37;;;;;;;1.38;1.27;;;;;;;4.10;100.00;95821.56;5051324;28;24426;-76
2021/11/05 03:56:05;;;;;;;1.40;1.30;;;;;;;4.12;100.00;95822.38;5051030;28;24422;-75
2021/11/05 03:58:31;;;;;;;1.23;1.13;;;;;;;3.96;100.00;95826.34;5051037;28;24426;-75
2021/11/05 04:00:58;;;;;;;1.80;1.15;;;;;;;4.02;100.00;95831.28;5050951;28;24422;-75
2021/11/05 04:03:24;;;;;;;2.00;1.00;;;;;;;4.09;100.00;95835.28;5051215;28;24419;-75
2021/11/05 04:05:52;;;;;;;1.42;1.10;;;;;;;4.15;100.00;95836.78;5050694;28;24439;-74
2021/11/05 04:08:19;;;;;;;2.27;1.17;;;;;;;4.22;100.00;95840.78;5050973;28;24532;-74
2021/11/05 04:10:46;;;;;;;1.10;1.00;;;;;;;4.25;100.00;95844.97;5050865;28;24987;-75
2021/11/05 04:13:13;;;;;;;1.37;1.10;;;;;;;4.19;100.00;95851.19;5050679;28;24419;-75
2021/11/05 04:15:39;;;;;;;1.27;1.05;;;;;;;4.24;100.00;95856.97;5050539;28;24768;-74
2021/11/05 04:18:06;;;;;;;2.60;1.10;;;;;;;4.25;100.00;95865.50;5051011;28;24434;-74
2021/11/05 04:20:34;;;;;;;1.30;1.20;;;;;;;4.22;100.00;95870.72;5050808;28;24421;-75
2021/11/05 04:23:05;;;;;;;0.95;0.93;;;;;;;4.22;100.00;95874.13;5050844;28;24434;-75
2021/11/05 04:25:32;;;;;;;1.10;1.00;;;;;;;4.19;100.00;95871.69;5050386;28;24438;-75
2021/11/05 04:27:59;;;;;;;1.20;1.00;;;;;;;4.12;100.00;95875.38;5050377;28;24431;-75
2021/11/05 04:30:25;;;;;;;2.00;1.00;;;;;;;4.12;100.00;95876.19;5050807;28;21124;-75
2021/11/05 04:32:54;;;;;;;1.10;1.00;;;;;;;4.11;100.00;95879.63;5050188;28;24498;-75
2021/11/05 04:35:20;;;;;;;1.35;1.05;;;;;;;4.10;100.00;95883.09;5050294;28;24434;-75
2021/11/05 04:37:47;;;;;;;1.08;0.85;;;;;;;4.10;100.00;95880.53;5050463;28;24419;-75
2021/11/05 04:40:14;;;;;;;0.73;0.73;;;;;;;4.12;100.00;95878.75;5050361;28;24412;-75
2021/11/05 04:42:41;;;;;;;0.88;0.88;;;;;;;4.12;100.00;95891.56;5050689;28;24419;-75
2021/11/05 04:45:08;;;;;;;1.10;1.00;;;;;;;4.13;100.00;95888.09;5050286;28;24427;-75
2021/11/05 04:47:35;;;;;;;1.40;0.90;;;;;;;4.13;100.00;95882.16;5050419;28;24431;-75
2021/11/05 04:50:01;;;;;;;1.70;1.15;;;;;;;4.12;100.00;95889.00;5050160;28;24988;-76
2021/11/05 04:52:28;;;;;;;1.38;1.05;;;;;;;4.15;100.00;95890.59;5050180;28;24979;-75
2021/11/05 04:54:54;;;;;;;1.45;1.00;;;;;;;4.16;100.00;95889.75;5049834;28;24431;-75
2021/11/05 04:57:22;;;;;;;1.80;1.40;;;;;;;4.06;100.00;95885.81;5050146;28;24961;-75
2021/11/05 04:59:49;;;;;;;1.80;1.42;;;;;;;4.08;100.00;95884.88;5050379;28;24424;-75
2021/11/05 05:02:17;;;;;;;1.73;1.33;;;;;;;4.06;100.00;95890.94;5050286;28;24447;-75
2021/11/05 05:04:45;;;;;;;1.70;1.20;;;;;;;3.99;100.00;95895.44;5049753;28;25007;-76
2021/11/05 05:07:12;;;;;;;1.70;1.50;;;;;;;4.00;100.00;95901.41;5050179;28;24427;-76
2021/11/05 05:09:39;;;;;;;2.70;2.08;;;;;;;3.96;100.00;95899.84;5050008;28;25159;-75
2021/11/05 05:12:06;;;;;;;2.13;1.70;;;;;;;3.97;100.00;95902.38;5050348;28;24427;-76
2021/11/05 05:14:34;;;;;;;1.80;1.42;;;;;;;3.94;100.00;95896.50;5052884;28;24415;-74
2021/11/05 05:17:01;;;;;;;2.08;1.77;;;;;;;3.97;100.00;95899.81;5054184;28;24450;-75
2021/11/05 05:19:28;;;;;;;1.80;1.70;;;;;;;3.92;100.00;95899.09;5053892;28;24435;-75
2021/11/05 05:21:54;;;;;;;2.08;1.60;;;;;;;3.84;100.00;95912.19;5053951;28;24941;-75
2021/11/05 05:24:21;;;;;;;1.50;1.40;;;;;;;3.78;100.00;95914.13;5054249;28;24423;-75
2021/11/05 05:26:47;;;;;;;2.85;1.63;;;;;;;3.84;100.00;95916.47;5053900;28;24434;-75
2021/11/05 05:29:14;;;;;;;1.67;1.58;;;;;;;3.87;100.00;95919.78;5053931;28;24451;-75
2021/11/05 05:31:42;;;;;;;1.75;1.40;;;;;;;3.88;100.00;95916.31;5053888;28;24983;-75
2021/11/05 05:34:08;;;;;;;2.00;1.70;;;;;;;3.88;100.00;95920.59;5053777;28;24430;-75
2021/11/05 05:36:35;;;;;;;1.85;1.65;;;;;;;3.84;100.00;95927.56;5053380;28;24438;-75
2021/11/05 05:39:02;;;;;;;1.70;1.23;;;;;;;3.87;100.00;95930.03;5053828;28;24426;-74
2021/11/05 05:41:28;;;;;;;1.73;1.60;;;;;;;3.91;100.00;95935.03;5053884;28;24422;-75
2021/11/05 05:43:55;;;;;;;1.58;1.40;;;;;;;3.93;100.00;95935.81;5053732;28;24420;-74
2021/11/05 05:46:21;;;;;;;2.72;1.63;;;;;;;3.90;100.00;95931.66;5053425;28;24415;-76
2021/11/05 05:48:49;;;;;;;1.48;1.33;;;;;;;3.95;100.00;95941.75;5053324;28;24462;-76
2021/11/05 05:51:16;;;;;;;2.38;1.92;;;;;;;3.97;100.00;95945.94;5053387;28;24430;-75
2021/11/05 05:53:42;;;;;;;2.97;2.50;;;;;;;3.95;100.00;95952.81;5053371;28;24975;-74
2021/11/05 05:56:09;;;;;;;2.10;1.75;;;;;;;3.95;100.00;95952.81;5053167;28;24788;-75
2021/11/05 05:58:36;;;;;;;2.40;1.60;;;;;;;3.97;100.00;95958.75;5053302;28;24975;-75
2021/11/05 06:01:03;;;;;;;1.58;1.38;;;;;;;4.00;100.00;95958.63;5053344;28;24435;-74
2021/11/05 06:03:29;;;;;;;1.48;1.30;;;;;;;3.98;100.00;95962.13;5053255;28;24991;-75
2021/11/05 06:05:57;;;;;;;1.63;1.30;;;;;;;3.96;100.00;95957.03;5052843;28;24422;-75
2021/11/05 06:08:23;;;;;;;1.55;1.30;;;;;;;3.97;100.00;95965.56;5053386;28;24423;-75
2021/11/05 06:10:51;;;;;;;2.30;1.30;;;;;;;3.94;100.00;95971.66;5053422;28;24509;-75
2021/11/05 06:13:17;;;;;;;2.07;1.20;;;;;;;4.01;100.00;95972.28;5053210;28;24788;-75
2021/11/05 06:15:44;;;;;;;1.40;1.20;;;;;;;4.05;100.00;95979.81;5052858;28;24513;-75
2021/11/05 06:18:10;;;;;;;1.45;1.00;;;;;;;3.99;100.00;95974.88;5052917;28;24431;-75
2021/11/05 06:20:37;;;;;;;1.50;1.10;;;;;;;3.97;100.00;95984.38;5053194;28;24796;-75
2021/11/05 06:23:05;;;;;;;2.10;1.20;;;;;;;3.96;100.00;95981.84;5053124;28;24422;-75
2021/11/05 06:25:31;;;;;;;1.10;1.00;;;;;;;3.96;100.00;95990.34;5051379;28;24505;-75
2021/11/05 06:27:58;;;;;;;1.42;1.00;;;;;;;4.07;100.00;95993.41;5052786;28;24490;-74
2021/11/05 06:30:24;;;;;;;1.20;1.10;;;;;;;4.09;100.00;96001.88;5052805;28;24450;-75
2021/11/05 06:32:51;;;;;;;1.42;1.00;;;;;;;4.08;100.00;95995.09;5052685;28;24415;-74
2021/11/05 06:35:18;;;;;;;1.73;1.48;;;;;;;4.08;100.00;96009.63;5052627;28;24454;-75
2021/11/05 06:37:44;;;;;;;2.22;1.60;;;;;;;4.16;100.00;96017.06;5052775;28;24415;-75
2021/11/05 06:40:14;;;;;;;1.58;1.25;;;;;;;4.16;100.00;96009.38;5052697;28;24510;-75
2021/11/05 06:42:41;;;;;;;3.60;1.40;;;;;;;4.16;100.00;96023.03;5052593;28;24423;-75
2021/11/05 06:45:08;;;;;;;1.35;1.25;;;;;;;4.26;100.00;96031.22;5041452;28;24439;-75
2021/11/05 06:47:35;;;;;;;2.35;2.15;;;;;;;4.16;100.00;96035.84;5052538;28;24427;-75
2021/11/05 06:50:02;;;;;;;2.85;2.30;;;;;;;4.19;100.00;96037.44;5052315;28;24448;-75
2021/11/05 06:52:28;;;;;;;3.10;2.50;;;;;;;4.12;100.00;96044.53;5052787;28;24411;-75
2021/11/05 06:54:55;;;;;;;4.00;2.15;;;;;;;4.04;100.00;96049.03;5051812;28;24968;-75
2021/11/05 06:57:23;;;;;;;2.88;2.10;;;;;;;4.08;100.00;96054.06;5052305;28;24423;-75
2021/11/05 06:59:50;;;;;;;2.70;1.70;;;;;;;4.12;100.00;96063.31;5051731;28;24419;-75
2021/11/05 07:02:16;;;;;;;2.83;2.00;;;;;;;4.23;100.00;96069.81;5052354;28;24420;-75
2021/11/05 07:04:43;;;;;;;1.63;1.52;;;;;;;4.29;100.00;96064.47;5052080;28;24502;-76
2021/11/05 07:07:09;;;;;;;2.63;1.63;;;;;;;4.25;100.00;96073.97;5052734;28;24420;-76
2021/11/05 07:09:36;;;;;;;1.80;1.45;;;;;;;4.29;100.00;96078.13;5051919;28;25023;-75
2021/11/05 07:12:03;;;;;;;2.80;1.33;;;;;;;4.27;100.00;96087.59;5052110;28;24431;-76
2021/11/05 07:14:31;;;;;;;1.73;1.20;;;;;;;4.35;100.00;96090.75;5051635;28;25064;-75
2021/11/05 07:16:58;;;;;;;1.30;1.20;;;;;;;4.43;100.00;96095.63;5052004;28;24936;-75
2021/11/05 07:19:25;;;;;;;2.20;1.40;;;;;;;4.50;100.00;96099.66;5051939;28;24426;-69
2021/11/05 07:21:58;;;;;;;4.97;1.50;;;;;;;4.66;100.00;96101.69;5049872;28;24439;-74
2021/11/05 07:24:26;;;;;;;9.23;2.38;;;;;;;4.50;100.00;96119.34;5044279;28;24518;-76
2021/11/05 07:26:53;;;;;;;5.45;2.00;;;;;;;4.50;100.00;96114.22;5051653;28;24438;-76
2021/11/05 07:29:23;;;;;;;4.40;2.10;;;;;;;4.53;100.00;96124.38;5052082;28;24455;-76
2021/11/05 07:31:52;;;;;;;7.68;2.05;;;;;;;4.48;100.00;96131.38;5052082;28;24459;-75
2021/11/05 07:34:19;;;;;;;6.22;2.38;;;;;;;4.54;100.00;96131.16;5051908;28;24944;-75
2021/11/05 07:36:45;;;;;;;4.22;2.22;;;;;;;4.58;100.00;96138.72;5051509;28;24777;-76
2021/11/05 07:39:12;;;;;;;12.80;5.82;;;;;;;4.60;100.00;96142.06;5051668;28;24820;-76
2021/11/05 07:41:39;;;;;;;17.00;10.85;;;;;;;4.63;100.00;96145.41;5051245;28;24415;-74
2021/11/05 07:44:05;;;;;;;7.63;6.13;;;;;;;4.70;100.00;96155.41;5051580;28;24423;-74
2021/11/05 07:46:32;;;;;;;12.63;6.88;;;;;;;4.73;100.00;96163.00;5050371;28;24444;-75
2021/11/05 07:49:00;;;;;;;10.75;4.72;;;;;;;4.69;100.00;96170.88;5057460;23;24472;-72
2021/11/05 07:51:28;;;;;;;8.30;4.38;;;;;;;4.75;100.00;96170.69;5030878;28;24998;-72
2021/11/05 07:53:55;;;;;;;10.43;4.63;;;;;;;4.71;100.00;96175.06;5031021;28;24442;-72
2021/11/05 07:56:22;;;;;;;12.50;4.00;;;;;;;4.69;100.00;96181.13;5031031;28;24430;-73
2021/11/05 07:58:48;;;;;;;8.80;3.05;;;;;;;4.71;100.00;96182.78;5037642;28;24428;-73
2021/11/05 08:01:14;;;;;;;3.80;2.30;;;;;;;4.78;100.00;96191.06;5051585;28;24431;-74
2021/11/05 08:03:42;;;;;;;4.50;2.03;;;;;;;4.79;100.00;96192.78;5051332;28;25002;-73
2021/11/05 08:06:09;;;;;;;1.90;1.30;;;;;;;4.78;100.00;96193.66;5050874;28;24462;-73
2021/11/05 08:08:36;;;;;;;2.55;1.38;;;;;;;4.77;100.00;96207.38;5050982;28;24427;-74
2021/11/05 08:11:03;;;;;;;2.13;1.27;;;;;;;4.82;100.00;96203.78;5051097;28;25026;-73
2021/11/05 08:13:29;;;;;;;1.83;1.03;;;;;;;4.85;100.00;96210.53;5051325;28;24505;-73
2021/11/05 08:15:56;;;;;;;7.57;6.03;;;;;;;4.88;100.00;96212.16;5050734;28;24969;-74
2021/11/05 08:18:22;;;;;;;7.05;2.67;;;;;;;4.84;100.00;96217.38;5051021;28;24434;-72
2021/11/05 08:20:49;;;;;;;3.85;1.75;;;;;;;4.82;100.00;96221.75;5050804;28;24415;-73
2021/11/05 08:23:17;;;;;;;5.32;1.60;;;;;;;4.87;100.00;96225.88;5050373;28;24435;-72
2021/11/05 08:25:47;;;;;;;2.65;1.48;;;;;;;4.94;100.00;96232.50;5050933;28;24422;-73
2021/11/05 08:28:14;;;;;;;2.85;1.73;;;;;;;4.93;100.00;96233.34;5050816;28;25027;-73
2021/11/05 08:30:41;;;;;;;3.13;1.55;;;;;;;5.02;100.00;96233.06;5050921;28;24542;-74
2021/11/05 08:33:08;;;;;;;14.27;1.90;;;;;;;5.10;100.00;96238.78;5051020;28;24420;-73
2021/11/05 08:35:35;;;;;;;2.80;1.33;;;;;;;5.09;100.00;96237.13;5050389;28;24415;-73
2021/11/05 08:38:04;;;;;;;2.10;1.35;;;;;;;5.10;100.00;96247.31;5050408;28;24911;-72
2021/11/05 08:40:32;;;;;;;1.80;1.30;;;;;;;5.22;100.00;96247.78;5050987;28;24458;-75
2021/11/05 08:42:59;;;;;;;1.80;1.35;;;;;;;5.31;100.00;96250.06;5050611;28;24969;-73
2021/11/05 08:45:25;;;;;;;2.20;1.42;;;;;;;5.33;100.00;96251.66;5050444;28;24430;-73
2021/11/05 08:47:52;;;;;;;1.73;1.30;;;;;;;5.42;100.00;96260.81;5049881;28;24781;-74
2021/11/05 08:50:21;;;;;;;2.30;1.30;;;;;;;5.42;100.00;96260.81;5050160;28;24458;-73
2021/11/05 08:52:49;;;;;;;2.30;1.33;;;;;;;5.51;100.00;96263.03;5050374;28;24430;-74
2021/11/05 08:55:16;;;;;;;2.70;1.40;;;;;;;5.57;100.00;96257.69;5050607;28;24419;-74
2021/11/05 08:57:45;;;;;;;1.70;1.20;;;;;;;5.47;100.00;96260.63;5050927;28;24466;-73
2021/11/05 09:00:18;;;;;;;2.10;1.20;;;;;;;5.60;100.00;96261.91;5050377;28;24427;-73
2021/11/05 09:02:45;;;;;;;1.53;1.20;;;;;;;5.67;100.00;96270.22;5050310;28;24431;-73
2021/11/05 09:05:12;;;;;;;2.13;1.30;;;;;;;5.68;100.00;96274.47;5049795;28;24960;-74
2021/11/05 09:07:38;;;;;;;2.00;1.30;;;;;;;5.73;100.00;96277.72;5050929;28;24430;-73
2021/11/05 09:10:07;;;;;;;2.55;1.50;;;;;;;5.62;100.00;96290.09;5050266;28;24450;-73
2021/11/05 09:12:33;;;;;;;1.83;1.38;;;;;;;5.71;100.00;96289.75;5050507;28;24431;-73
2021/11/05 09:15:01;;;;;;;1.10;1.00;;;;;;;5.70;100.00;96293.22;5049933;28;24418;-73
2021/11/05 09:17:28;;;;;;;2.13;0.90;;;;;;;5.74;100.00;96295.63;5050524;28;24428;-73
2021/11/05 09:19:54;;;;;;;3.38;1.50;;;;;;;5.68;100.00;96306.16;5050036;28;24996;-74
2021/11/05 09:22:21;;;;;;;1.70;0.93;;;;;;;5.60;100.00;96310.72;5050160;28;24434;-73
2021/11/05 09:24:47;;;;;;;1.65;1.00;;;;;;;5.58;100.00;96308.19;5049998;28;24789;-73
2021/11/05 09:27:14;;;;;;;2.17;0.98;;;;;;;5.62;100.00;96305.50;5050280;28;24498;-73
2021/11/05 09:29:41;;;;;;;1.50;1.00;;;;;;;5.74;100.00;96310.22;5050171;28;24411;-73
2021/11/05 09:32:09;;;;;;;1.60;0.80;;;;;;;5.70;100.00;96311.22;5049685;28;24435;-74
2021/11/05 09:34:36;;;;;;;0.90;0.80;;;;;;;5.70;100.00;96312.06;5050188;28;24430;-73
2021/11/05 09:37:05;;;;;;;1.20;0.70;;;;;;;5.72;100.00;96318.00;5050226;28;24434;-73
2021/11/05 09:39:32;;;;;;;1.58;1.00;;;;;;;5.80;100.00;96320.28;5050123;28;24778;-73
2021/11/05 09:41:59;;;;;;;3.35;2.42;;;;;;;5.92;100.00;96313.88;5050058;28;24960;-73
2021/11/05 09:44:28;;;;;;;4.80;2.80;;;;;;;6.00;100.00;96322.19;5049539;28;24419;-73
2021/11/05 09:46:55;;;;;;;2.13;1.77;;;;;;;6.01;100.00;96329.03;5050291;28;24420;-73
2021/11/05 09:49:23;;;;;;;3.40;2.25;;;;;;;6.09;100.00;96331.31;5049726;28;24426;-74
2021/11/05 09:51:50;;;;;;;2.60;2.03;;;;;;;6.01;100.00;96332.44;5049569;28;24536;-74
2021/11/05 09:54:18;;;;;;;2.28;2.08;;;;;;;6.19;100.00;96340.34;5049945;28;24431;-75
2021/11/05 09:56:46;;;;;;;1.77;1.15;;;;;;;6.20;100.00;96342.06;5049859;28;20817;-74
2021/11/05 09:59:13;;;;;;;1.70;0.98;;;;;;;6.31;100.00;96342.50;5050476;28;24489;-74
2021/11/05 10:01:41;;;;;;;1.55;0.70;;;;;;;6.44;100.00;96341.13;5053590;28;24975;-73
2021/11/05 10:04:07;;;;;;;1.88;1.00;;;;;;;6.53;100.00;96353.66;5053733;28;24419;-74
2021/11/05 10:06:36;;;;;;;3.05;1.60;;;;;;;6.47;100.00;96358.19;5053212;28;24426;-73
2021/11/05 10:09:04;;;;;;;2.05;1.48;;;;;;;6.53;100.00;96352.84;5053371;28;24439;-72
2021/11/05 10:11:32;;;;;;;4.60;3.20;;;;;;;6.65;100.00;96354.94;5053499;28;24443;-73
2021/11/05 10:14:00;;;;;;;4.18;3.15;;;;;;;6.73;100.00;96357.22;5053399;28;24422;-73
2021/11/05 10:16:29;;;;;;;4.28;1.80;;;;;;;6.59;100.00;96369.75;5053036;28;24450;-73
2021/11/05 10:19:00;;;;;;;3.30;1.42;;;;;;;6.67;100.00;96372.88;5053260;28;24458;-73
2021/11/05 10:21:26;;;;;;;3.40;1.80;;;;;;;6.60;100.00;96372.31;5052830;28;25041;-73
2021/11/05 10:24:06;;;;;;;1.90;1.80;;;;;;;6.66;100.00;96377.19;5053412;28;24419;-73
2021/11/05 10:26:35;;;;;;;3.03;1.75;;;;;;;6.81;100.00;96369.78;5053347;28;21134;-73
2021/11/05 10:29:02;;;;;;;1.45;1.33;;;;;;;6.81;100.00;96373.19;5053024;28;24893;-73
2021/11/05 10:31:30;;;;;;;1.10;1.00;;;;;;;6.65;100.00;96372.13;5052850;28;24450;-73
2021/11/05 10:33:57;;;;;;;3.40;1.40;;;;;;;6.49;100.00;96377.00;5052889;28;24502;-73
2021/11/05 10:36:27;;;;;;;2.33;1.52;;;;;;;6.52;100.00;96382.00;5052525;28;24427;-72
2021/11/05 10:38:58;;;;;;;1.25;1.15;;;;;;;6.42;100.00;96373.81;5053022;28;24471;-71
2021/11/05 10:41:26;;;;;;;1.10;1.00;;;;;;;6.36;100.00;96378.34;5051906;28;24439;-74
2021/11/05 10:43:55;;;;;;;1.70;1.20;;;;;;;6.47;100.00;96379.63;5052892;28;24422;-74
2021/11/05 10:46:28;;;;;;;2.33;1.30;;;;;;;6.42;100.00;96385.84;5047652;28;24439;-74
2021/11/05 10:48:58;;;;;;;1.30;1.00;;;;;;;6.36;100.00;96380.91;5047997;28;24904;-74
2021/11/05 10:51:26;;;;;;;1.08;0.88;;;;;;;6.26;100.00;96377.81;5052106;28;24466;-74
2021/11/05 10:53:55;;;;;;;1.35;1.08;;;;;;;6.32;100.00;96382.75;5052513;28;24427;-74
2021/11/05 10:56:25;;;;;;;0.95;0.90;;;;;;;6.35;100.00;96390.38;5052250;28;24411;-74
2021/11/05 10:58:57;;;;;;;2.05;1.20;;;;;;;6.48;100.00;96391.56;5052457;28;24465;-74
2021/11/05 11:01:25;;;;;;;1.60;1.25;;;;;;;6.49;100.00;96392.44;5052312;28;24423;-74
2021/11/05 11:03:54;;;;;;;1.20;1.10;;;;;;;6.54;100.00;96393.94;5052018;28;25283;-74
2021/11/05 11:06:23;;;;;;;1.35;1.00;;;;;;;6.60;100.00;96397.16;5052011;28;24419;-74
2021/11/05 11:08:52;;;;;;;1.00;1.00;;;;;;;6.64;100.00;96399.59;5052141;28;24427;-74
2021/11/05 11:11:23;;;;;;;1.80;1.10;;;;;;;6.71;100.00;96395.03;5052007;28;24805;-74
2021/11/05 11:13:52;;;;;;;3.72;1.30;;;;;;;6.79;100.00;96393.03;5052665;28;24430;-74
2021/11/05 11:16:23;;;;;;;1.10;0.90;;;;;;;6.71;100.00;96405.34;5051364;28;24438;-74
2021/11/05 11:18:55;;;;;;;1.40;1.25;;;;;;;6.66;100.00;96404.69;5052252;28;24435;-75
2021/11/05 11:21:25;;;;;;;2.30;2.03;;;;;;;6.68;100.00;96396.00;5051647;28;24796;-74
2021/11/05 11:23:52;;;;;;;3.45;2.40;;;;;;;6.54;100.00;96411.94;5052215;28;24428;-74
2021/11/05 11:26:20;;;;;;;3.38;2.58;;;;;;;6.57;100.00;96405.88;5051590;28;24438;-74
2021/11/05 11:28:47;;;;;;;4.72;3.40;;;;;;;6.55;100.00;96403.31;5051653;28;25269;-74
2021/11/05 11:31:16;;;;;;;2.70;1.80;;;;;;;6.52;100.00;96400.84;5051410;28;24457;-75
2021/11/05 11:33:43;;;;;;;1.88;1.35;;;;;;;6.49;100.00;96416.44;5051628;28;24473;-75